sensor_id;sensor_type;location;lat;lon;timestamp;pressure;altitude;pressure_sealevel;temperature;humidity
20909;BME280;10614;53.198;6.570;2023-07-13T00:01:56;101206.13;;;17.91;98.31
20909;BME280;10614;53.198;6.570;2023-07-13T00:03:58;101195.81;;;17.86;97.78
20909;BME280;10614;53.198;6.570;2023-07-13T00:06:01;101213.38;;;17.89;98.88
20909;BME280;10614;53.198;6.570;2023-07-13T00:08:04;101215.28;;;17.87;98.14
20909;BME280;10614;53.198;6.570;2023-07-13T00:10:08;101209.28;;;17.83;98.38
20909;BME280;10614;53.198;6.570;2023-07-13T00:12:23;101207.84;;;17.78;98.59
20909;BME280;10614;53.198;6.570;2023-07-13T00:14:28;101215.09;;;17.76;99.38
20909;BME280;10614;53.198;6.570;2023-07-13T00:16:31;101206.44;;;17.72;99.31
20909;BME280;10614;53.198;6.570;2023-07-13T00:18:33;101211.66;;;17.73;99.49
20909;BME280;10614;53.198;6.570;2023-07-13T00:20:34;101215.28;;;17.72;99.34
20909;BME280;10614;53.198;6.570;2023-07-13T00:22:36;101216.22;;;17.71;100.00
20909;BME280;10614;53.198;6.570;2023-07-13T00:24:38;101205.88;;;17.67;100.00
20909;BME280;10614;53.198;6.570;2023-07-13T00:26:42;101210.81;;;17.73;100.00
20909;BME280;10614;53.198;6.570;2023-07-13T00:28:46;101212.81;;;17.69;100.00
20909;BME280;10614;53.198;6.570;2023-07-13T00:30:49;101209.38;;;17.67;100.00
20909;BME280;10614;53.198;6.570;2023-07-13T00:32:51;101226.25;;;17.68;100.00
20909;BME280;10614;53.198;6.570;2023-07-13T00:34:53;101240.47;;;17.67;100.00
20909;BME280;10614;53.198;6.570;2023-07-13T00:36:55;101226.53;;;17.63;100.00
20909;BME280;10614;53.198;6.570;2023-07-13T00:38:56;101223.88;;;17.63;100.00
20909;BME280;10614;53.198;6.570;2023-07-13T00:41:03;101223.94;;;17.62;100.00
20909;BME280;10614;53.198;6.570;2023-07-13T00:43:10;101216.94;;;17.61;100.00
20909;BME280;10614;53.198;6.570;2023-07-13T00:47:52;101219.00;;;17.56;100.00
20909;BME280;10614;53.198;6.570;2023-07-13T00:49:54;101216.53;;;17.52;100.00
20909;BME280;10614;53.198;6.570;2023-07-13T00:52:00;101225.66;;;17.48;100.00
20909;BME280;10614;53.198;6.570;2023-07-13T00:54:05;101218.84;;;17.44;100.00
20909;BME280;10614;53.198;6.570;2023-07-13T00:56:09;101219.16;;;17.40;100.00
20909;BME280;10614;53.198;6.570;2023-07-13T00:58:12;101228.06;;;17.39;100.00
20909;BME280;10614;53.198;6.570;2023-07-13T01:00:14;101224.84;;;17.34;100.00
20909;BME280;10614;53.198;6.570;2023-07-13T01:02:17;101225.59;;;17.36;100.00
20909;BME280;10614;53.198;6.570;2023-07-13T01:04:23;101220.34;;;17.34;100.00
20909;BME280;10614;53.198;6.570;2023-07-13T01:06:25;101221.59;;;17.28;100.00
20909;BME280;10614;53.198;6.570;2023-07-13T01:08:26;101223.22;;;17.31;100.00
20909;BME280;10614;53.198;6.570;2023-07-13T01:10:30;101230.44;;;17.29;100.00
20909;BME280;10614;53.198;6.570;2023-07-13T01:12:39;101232.34;;;17.27;100.00
20909;BME280;10614;53.198;6.570;2023-07-13T01:14:40;101225.41;;;17.24;100.00
20909;BME280;10614;53.198;6.570;2023-07-13T01:16:46;101220.66;;;17.15;100.00
20909;BME280;10614;53.198;6.570;2023-07-13T01:18:48;101226.72;;;17.17;100.00
20909;BME280;10614;53.198;6.570;2023-07-13T01:20:53;101229.75;;;17.11;100.00
20909;BME280;10614;53.198;6.570;2023-07-13T01:22:55;101232.81;;;17.05;100.00
20909;BME280;10614;53.198;6.570;2023-07-13T01:24:57;101230.25;;;17.03;100.00
20909;BME280;10614;53.198;6.570;2023-07-13T01:26:59;101232.97;;;17.02;100.00
20909;BME280;10614;53.198;6.570;2023-07-13T01:29:01;101225.28;;;16.97;100.00
20909;BME280;10614;53.198;6.570;2023-07-13T01:31:04;101231.09;;;17.04;100.00
20909;BME280;10614;53.198;6.570;2023-07-13T01:33:06;101224.06;;;17.03;100.00
20909;BME280;10614;53.198;6.570;2023-07-13T01:35:08;101224.84;;;17.05;100.00
20909;BME280;10614;53.198;6.570;2023-07-13T01:37:14;101220.38;;;17.05;100.00
20909;BME280;10614;53.198;6.570;2023-07-13T01:39:16;101232.63;;;17.08;100.00
20909;BME280;10614;53.198;6.570;2023-07-13T01:41:18;101224.91;;;17.03;100.00
20909;BME280;10614;53.198;6.570;2023-07-13T01:43:20;101224.06;;;17.03;100.00
20909;BME280;10614;53.198;6.570;2023-07-13T01:45:22;101235.34;;;17.06;100.00
20909;BME280;10614;53.198;6.570;2023-07-13T01:47:24;101238.97;;;17.05;100.00
20909;BME280;10614;53.198;6.570;2023-07-13T01:49:28;101244.31;;;17.05;100.00
20909;BME280;10614;53.198;6.570;2023-07-13T01:51:30;101238.03;;;17.06;100.00
20909;BME280;10614;53.198;6.570;2023-07-13T01:53:33;101239.81;;;17.06;100.00
20909;BME280;10614;53.198;6.570;2023-07-13T01:55:35;101232.97;;;17.02;100.00
20909;BME280;10614;53.198;6.570;2023-07-13T01:57:37;101237.56;;;17.00;100.00
20909;BME280;10614;53.198;6.570;2023-07-13T01:59:40;101238.50;;;16.99;100.00
20909;BME280;10614;53.198;6.570;2023-07-13T02:01:42;101243.25;;;16.94;100.00
20909;BME280;10614;53.198;6.570;2023-07-13T02:03:43;101241.22;;;16.83;100.00
20909;BME280;10614;53.198;6.570;2023-07-13T02:05:47;101240.56;;;16.79;100.00
20909;BME280;10614;53.198;6.570;2023-07-13T02:07:49;101237.28;;;16.74;100.00
20909;BME280;10614;53.198;6.570;2023-07-13T02:09:56;101252.09;;;16.78;100.00
20909;BME280;10614;53.198;6.570;2023-07-13T02:11:58;101234.53;;;16.76;100.00
20909;BME280;10614;53.198;6.570;2023-07-13T02:14:01;101240.22;;;16.70;100.00
20909;BME280;10614;53.198;6.570;2023-07-13T02:16:04;101232.59;;;16.63;100.00
20909;BME280;10614;53.198;6.570;2023-07-13T02:18:06;101236.09;;;16.64;100.00
20909;BME280;10614;53.198;6.570;2023-07-13T02:20:09;101238.88;;;16.62;100.00
20909;BME280;10614;53.198;6.570;2023-07-13T02:22:09;101237.34;;;16.58;100.00
20909;BME280;10614;53.198;6.570;2023-07-13T02:24:11;101240.91;;;16.57;100.00
20909;BME280;10614;53.198;6.570;2023-07-13T02:26:19;101240.19;;;16.55;100.00
20909;BME280;10614;53.198;6.570;2023-07-13T02:28:21;101232.47;;;16.51;100.00
20909;BME280;10614;53.198;6.570;2023-07-13T02:30:23;101235.88;;;16.53;100.00
20909;BME280;10614;53.198;6.570;2023-07-13T02:32:25;101236.84;;;16.52;100.00
20909;BME280;10614;53.198;6.570;2023-07-13T02:34:27;101244.81;;;16.52;100.00
20909;BME280;10614;53.198;6.570;2023-07-13T02:36:29;101244.03;;;16.50;100.00
20909;BME280;10614;53.198;6.570;2023-07-13T02:38:31;101238.91;;;16.46;100.00
20909;BME280;10614;53.198;6.570;2023-07-13T02:40:34;101237.28;;;16.44;100.00
20909;BME280;10614;53.198;6.570;2023-07-13T02:42:37;101242.69;;;16.42;100.00
20909;BME280;10614;53.198;6.570;2023-07-13T02:44:39;101233.94;;;16.40;100.00
20909;BME280;10614;53.198;6.570;2023-07-13T02:46:41;101248.00;;;16.42;100.00
20909;BME280;10614;53.198;6.570;2023-07-13T02:48:42;101227.19;;;16.35;100.00
20909;BME280;10614;53.198;6.570;2023-07-13T02:50:45;101234.13;;;16.37;100.00
20909;BME280;10614;53.198;6.570;2023-07-13T02:52:47;101241.16;;;16.38;100.00
20909;BME280;10614;53.198;6.570;2023-07-13T02:54:49;101223.78;;;16.33;100.00
20909;BME280;10614;53.198;6.570;2023-07-13T02:56:50;101232.41;;;16.36;100.00
20909;BME280;10614;53.198;6.570;2023-07-13T02:58:54;101237.72;;;16.36;100.00
20909;BME280;10614;53.198;6.570;2023-07-13T03:00:56;101235.31;;;16.32;100.00
20909;BME280;10614;53.198;6.570;2023-07-13T03:02:58;101229.28;;;16.30;100.00
20909;BME280;10614;53.198;6.570;2023-07-13T03:05:02;101230.19;;;16.29;100.00
20909;BME280;10614;53.198;6.570;2023-07-13T03:07:05;101238.16;;;16.29;100.00
20909;BME280;10614;53.198;6.570;2023-07-13T03:09:07;101243.56;;;16.27;100.00
20909;BME280;10614;53.198;6.570;2023-07-13T03:11:11;101237.50;;;16.25;100.00
20909;BME280;10614;53.198;6.570;2023-07-13T03:13:13;101236.63;;;16.24;100.00
20909;BME280;10614;53.198;6.570;2023-07-13T03:15:16;101240.31;;;16.22;100.00
20909;BME280;10614;53.198;6.570;2023-07-13T03:17:18;101239.47;;;16.21;100.00
20909;BME280;10614;53.198;6.570;2023-07-13T03:19:21;101238.63;;;16.21;100.00
20909;BME280;10614;53.198;6.570;2023-07-13T03:21:22;101237.00;;;16.18;100.00
20909;BME280;10614;53.198;6.570;2023-07-13T03:23:24;101245.03;;;16.17;100.00
20909;BME280;10614;53.198;6.570;2023-07-13T03:25:26;101240.75;;;16.14;100.00
20909;BME280;10614;53.198;6.570;2023-07-13T03:27:31;101249.69;;;16.13;100.00
20909;BME280;10614;53.198;6.570;2023-07-13T03:29:33;101259.63;;;16.10;100.00
20909;BME280;10614;53.198;6.570;2023-07-13T03:31:37;101249.19;;;16.07;100.00
20909;BME280;10614;53.198;6.570;2023-07-13T03:33:39;101254.63;;;16.03;100.00
20909;BME280;10614;53.198;6.570;2023-07-13T03:35:41;101251.06;;;16.04;100.00
20909;BME280;10614;53.198;6.570;2023-07-13T03:37:43;101255.25;;;16.09;100.00
20909;BME280;10614;53.198;6.570;2023-07-13T03:39:45;101258.50;;;16.14;100.00
20909;BME280;10614;53.198;6.570;2023-07-13T03:41:48;101248.81;;;16.13;100.00
20909;BME280;10614;53.198;6.570;2023-07-13T03:43:50;101258.31;;;16.17;100.00
20909;BME280;10614;53.198;6.570;2023-07-13T03:45:52;101255.66;;;16.17;100.00
20909;BME280;10614;53.198;6.570;2023-07-13T03:47:55;101257.41;;;16.18;100.00
20909;BME280;10614;53.198;6.570;2023-07-13T03:49:57;101259.03;;;16.20;100.00
20909;BME280;10614;53.198;6.570;2023-07-13T03:51:59;101258.91;;;16.22;100.00
20909;BME280;10614;53.198;6.570;2023-07-13T03:54:00;101258.84;;;16.23;100.00
20909;BME280;10614;53.198;6.570;2023-07-13T03:56:03;101263.09;;;16.26;100.00
20909;BME280;10614;53.198;6.570;2023-07-13T03:58:26;101262.16;;;16.27;100.00
20909;BME280;10614;53.198;6.570;2023-07-13T04:00:28;101255.59;;;16.18;100.00
20909;BME280;10614;53.198;6.570;2023-07-13T04:02:30;101267.06;;;16.19;100.00
20909;BME280;10614;53.198;6.570;2023-07-13T04:04:33;101264.47;;;16.17;100.00
20909;BME280;10614;53.198;6.570;2023-07-13T04:06:35;101268.94;;;16.17;100.00
20909;BME280;10614;53.198;6.570;2023-07-13T04:08:37;101267.59;;;16.10;100.00
20909;BME280;10614;53.198;6.570;2023-07-13T04:10:39;101272.03;;;16.09;100.00
20909;BME280;10614;53.198;6.570;2023-07-13T04:12:40;101268.03;;;16.02;100.00
20909;BME280;10614;53.198;6.570;2023-07-13T04:14:42;101281.81;;;16.09;100.00
20909;BME280;10614;53.198;6.570;2023-07-13T04:16:44;101281.81;;;16.09;100.00
20909;BME280;10614;53.198;6.570;2023-07-13T04:18:47;101279.16;;;16.09;100.00
20909;BME280;10614;53.198;6.570;2023-07-13T04:20:51;101278.38;;;16.07;100.00
20909;BME280;10614;53.198;6.570;2023-07-13T04:22:53;101273.34;;;16.02;100.00
20909;BME280;10614;53.198;6.570;2023-07-13T04:24:54;101283.94;;;16.02;100.00
20909;BME280;10614;53.198;6.570;2023-07-13T04:26:57;101283.09;;;16.01;100.00
20909;BME280;10614;53.198;6.570;2023-07-13T04:28:59;101287.63;;;15.99;100.00
20909;BME280;10614;53.198;6.570;2023-07-13T04:31:03;101290.28;;;15.99;100.00
20909;BME280;10614;53.198;6.570;2023-07-13T04:33:05;101282.47;;;15.96;100.00
20909;BME280;10614;53.198;6.570;2023-07-13T04:35:07;101282.31;;;15.99;100.00
20909;BME280;10614;53.198;6.570;2023-07-13T04:37:10;101285.13;;;15.96;100.00
20909;BME280;10614;53.198;6.570;2023-07-13T04:39:12;101289.66;;;15.94;100.00
20909;BME280;10614;53.198;6.570;2023-07-13T04:41:14;101296.63;;;15.97;100.00
20909;BME280;10614;53.198;6.570;2023-07-13T04:43:17;101294.91;;;15.96;100.00
20909;BME280;10614;53.198;6.570;2023-07-13T04:45:19;101293.72;;;16.01;100.00
20909;BME280;10614;53.198;6.570;2023-07-13T04:47:21;101293.78;;;16.00;100.00
20909;BME280;10614;53.198;6.570;2023-07-13T04:49:23;101302.53;;;16.02;100.00
20909;BME280;10614;53.198;6.570;2023-07-13T04:51:25;101299.78;;;16.03;100.00
20909;BME280;10614;53.198;6.570;2023-07-13T04:53:30;101310.25;;;16.07;100.00
20909;BME280;10614;53.198;6.570;2023-07-13T04:55:32;101300.47;;;16.07;100.00
20909;BME280;10614;53.198;6.570;2023-07-13T04:57:34;101303.81;;;16.11;100.00
20909;BME280;10614;53.198;6.570;2023-07-13T04:59:36;101310.66;;;16.15;100.00
20909;BME280;10614;53.198;6.570;2023-07-13T05:01:38;101311.44;;;16.17;100.00
20909;BME280;10614;53.198;6.570;2023-07-13T05:03:43;101315.72;;;16.19;100.00
20909;BME280;10614;53.198;6.570;2023-07-13T05:05:54;101305.69;;;16.24;100.00
20909;BME280;10614;53.198;6.570;2023-07-13T05:07:56;101316.06;;;16.29;100.00
20909;BME280;10614;53.198;6.570;2023-07-13T05:10:06;101309.91;;;16.29;100.00
20909;BME280;10614;53.198;6.570;2023-07-13T05:12:09;101310.06;;;16.25;100.00
20909;BME280;10614;53.198;6.570;2023-07-13T05:14:11;101320.53;;;16.29;100.00
20909;BME280;10614;53.198;6.570;2023-07-13T05:16:14;101320.53;;;16.29;100.00
20909;BME280;10614;53.198;6.570;2023-07-13T05:18:16;101322.25;;;16.30;100.00
20909;BME280;10614;53.198;6.570;2023-07-13T05:20:18;101323.94;;;16.31;100.00
20909;BME280;10614;53.198;6.570;2023-07-13T05:22:19;101316.25;;;16.26;100.00
20909;BME280;10614;53.198;6.570;2023-07-13T05:24:21;101320.25;;;16.33;100.00
20909;BME280;10614;53.198;6.570;2023-07-13T05:26:25;101328.03;;;16.36;100.00
20909;BME280;10614;53.198;6.570;2023-07-13T05:28:31;101322.47;;;16.41;100.00
20909;BME280;10614;53.198;6.570;2023-07-13T05:30:33;101327.78;;;16.41;100.00
20909;BME280;10614;53.198;6.570;2023-07-13T05:32:35;101328.56;;;16.43;100.00
20909;BME280;10614;53.198;6.570;2023-07-13T05:34:37;101328.31;;;16.48;100.00
20909;BME280;10614;53.198;6.570;2023-07-13T05:36:40;101330.03;;;16.49;100.00
20909;BME280;10614;53.198;6.570;2023-07-13T05:38:42;101334.13;;;16.54;100.00
20909;BME280;10614;53.198;6.570;2023-07-13T05:40:44;101332.69;;;16.49;100.00
20909;BME280;10614;53.198;6.570;2023-07-13T05:42:48;101338.34;;;16.58;100.00
20909;BME280;10614;53.198;6.570;2023-07-13T05:44:50;101334.63;;;16.61;100.00
20909;BME280;10614;53.198;6.570;2023-07-13T05:46:52;101337.09;;;16.64;100.00
20909;BME280;10614;53.198;6.570;2023-07-13T05:48:55;101331.72;;;16.65;100.00
20909;BME280;10614;53.198;6.570;2023-07-13T05:50:57;101346.38;;;16.73;100.00
20909;BME280;10614;53.198;6.570;2023-07-13T05:52:59;101349.69;;;16.76;100.00
20909;BME280;10614;53.198;6.570;2023-07-13T05:55:00;101348.59;;;16.80;100.00
20909;BME280;10614;53.198;6.570;2023-07-13T05:57:02;101347.66;;;16.81;100.00
20909;BME280;10614;53.198;6.570;2023-07-13T05:59:05;101352.63;;;16.87;100.00
20909;BME280;10614;53.198;6.570;2023-07-13T06:01:11;101361.28;;;16.91;100.00
20909;BME280;10614;53.198;6.570;2023-07-13T06:03:12;101351.16;;;16.98;100.00
20909;BME280;10614;53.198;6.570;2023-07-13T06:05:16;101359.72;;;17.03;100.00
20909;BME280;10614;53.198;6.570;2023-07-13T06:07:17;101356.84;;;17.06;100.00
20909;BME280;10614;53.198;6.570;2023-07-13T06:09:19;101361.97;;;17.09;100.00
20909;BME280;10614;53.198;6.570;2023-07-13T06:11:25;101368.19;;;17.09;100.00
20909;BME280;10614;53.198;6.570;2023-07-13T06:13:28;101361.06;;;17.10;100.00
20909;BME280;10614;53.198;6.570;2023-07-13T06:15:32;101365.41;;;17.11;100.00
20909;BME280;10614;53.198;6.570;2023-07-13T06:17:34;101354.00;;;17.09;100.00
20909;BME280;10614;53.198;6.570;2023-07-13T06:19:38;101368.75;;;17.15;100.00
20909;BME280;10614;53.198;6.570;2023-07-13T06:21:40;101372.56;;;17.25;100.00
20909;BME280;10614;53.198;6.570;2023-07-13T06:23:42;101369.75;;;17.28;100.00
20909;BME280;10614;53.198;6.570;2023-07-13T06:25:47;101366.91;;;17.31;100.00
20909;BME280;10614;53.198;6.570;2023-07-13T06:27:49;101379.09;;;17.35;100.00
20909;BME280;10614;53.198;6.570;2023-07-13T06:29:53;101369.78;;;17.42;100.00
20909;BME280;10614;53.198;6.570;2023-07-13T06:31:56;101374.22;;;17.42;100.00
20909;BME280;10614;53.198;6.570;2023-07-13T06:33:59;101377.66;;;17.44;100.00
20909;BME280;10614;53.198;6.570;2023-07-13T06:36:01;101380.16;;;17.47;100.00
20909;BME280;10614;53.198;6.570;2023-07-13T06:38:04;101371.19;;;17.48;100.00
20909;BME280;10614;53.198;6.570;2023-07-13T06:40:07;101370.56;;;17.44;100.00
20909;BME280;10614;53.198;6.570;2023-07-13T06:42:09;101381.50;;;17.54;100.00
20909;BME280;10614;53.198;6.570;2023-07-13T06:44:11;101370.66;;;17.57;100.00
20909;BME280;10614;53.198;6.570;2023-07-13T06:46:13;101381.88;;;17.62;100.00
20909;BME280;10614;53.198;6.570;2023-07-13T06:48:17;101380.94;;;17.63;100.00
20909;BME280;10614;53.198;6.570;2023-07-13T06:50:20;101381.69;;;17.65;100.00
20909;BME280;10614;53.198;6.570;2023-07-13T06:52:22;101385.00;;;17.69;100.00
20909;BME280;10614;53.198;6.570;2023-07-13T06:54:24;101370.28;;;17.63;100.00
20909;BME280;10614;53.198;6.570;2023-07-13T06:56:26;101392.81;;;17.72;100.00
20909;BME280;10614;53.198;6.570;2023-07-13T06:58:28;101385.59;;;17.74;100.00
20909;BME280;10614;53.198;6.570;2023-07-13T07:00:30;101393.19;;;17.80;100.00
20909;BME280;10614;53.198;6.570;2023-07-13T07:02:32;101394.09;;;17.95;100.00
20909;BME280;10614;53.198;6.570;2023-07-13T07:04:35;101398.63;;;18.07;100.00
20909;BME280;10614;53.198;6.570;2023-07-13T07:06:37;101394.25;;;18.21;100.00
20909;BME280;10614;53.198;6.570;2023-07-13T07:08:39;101406.31;;;18.41;100.00
20909;BME280;10614;53.198;6.570;2023-07-13T07:10:42;101403.16;;;18.48;100.00
20909;BME280;10614;53.198;6.570;2023-07-13T07:12:43;101406.63;;;18.63;100.00
20909;BME280;10614;53.198;6.570;2023-07-13T07:14:45;101400.44;;;18.63;100.00
20909;BME280;10614;53.198;6.570;2023-07-13T07:16:47;101394.72;;;18.69;100.00
20909;BME280;10614;53.198;6.570;2023-07-13T07:18:49;101427.47;;;18.85;100.00
20909;BME280;10614;53.198;6.570;2023-07-13T07:20:53;101386.53;;;18.72;100.00
20909;BME280;10614;53.198;6.570;2023-07-13T07:22:54;101398.03;;;18.45;100.00
20909;BME280;10614;53.198;6.570;2023-07-13T07:24:56;101415.00;;;18.16;100.00
20909;BME280;10614;53.198;6.570;2023-07-13T07:26:58;101407.59;;;17.92;100.00
20909;BME280;10614;53.198;6.570;2023-07-13T07:29:00;101395.94;;;17.79;100.00
20909;BME280;10614;53.198;6.570;2023-07-13T07:31:02;101397.97;;;17.75;100.00
20909;BME280;10614;53.198;6.570;2023-07-13T07:33:03;101417.25;;;17.79;100.00
20909;BME280;10614;53.198;6.570;2023-07-13T07:35:06;101419.66;;;17.83;100.00
20909;BME280;10614;53.198;6.570;2023-07-13T07:37:12;101411.13;;;17.92;100.00
20909;BME280;10614;53.198;6.570;2023-07-13T07:39:14;101420.34;;;18.01;100.00
20909;BME280;10614;53.198;6.570;2023-07-13T07:41:17;101424.34;;;18.08;100.00
20909;BME280;10614;53.198;6.570;2023-07-13T07:43:19;101423.97;;;18.14;100.00
20909;BME280;10614;53.198;6.570;2023-07-13T07:45:21;101419.69;;;18.26;100.00
20909;BME280;10614;53.198;6.570;2023-07-13T07:47:23;101417.34;;;18.49;100.00
20909;BME280;10614;53.198;6.570;2023-07-13T07:49:25;101417.00;;;18.68;100.00
20909;BME280;10614;53.198;6.570;2023-07-13T07:51:27;101420.91;;;18.76;100.00
20909;BME280;10614;53.198;6.570;2023-07-13T07:53:31;101422.63;;;18.77;100.00
20909;BME280;10614;53.198;6.570;2023-07-13T07:55:34;101426.25;;;18.76;100.00
20909;BME280;10614;53.198;6.570;2023-07-13T07:57:36;101426.72;;;18.69;100.00
20909;BME280;10614;53.198;6.570;2023-07-13T07:59:38;101426.34;;;18.61;100.00
20909;BME280;10614;53.198;6.570;2023-07-13T08:01:40;101428.59;;;18.40;100.00
20909;BME280;10614;53.198;6.570;2023-07-13T08:03:44;101428.81;;;18.08;100.00
20909;BME280;10614;53.198;6.570;2023-07-13T08:05:45;101428.19;;;17.74;100.00
20909;BME280;10614;53.198;6.570;2023-07-13T08:07:47;101430.78;;;17.45;100.00
20909;BME280;10614;53.198;6.570;2023-07-13T08:09:51;101413.91;;;17.16;100.00
20909;BME280;10614;53.198;6.570;2023-07-13T08:11:53;101415.78;;;17.14;100.00
20909;BME280;10614;53.198;6.570;2023-07-13T08:13:55;101423.00;;;17.12;100.00
20909;BME280;10614;53.198;6.570;2023-07-13T08:15:57;101424.03;;;17.09;100.00
20909;BME280;10614;53.198;6.570;2023-07-13T08:18:00;101430.13;;;17.12;100.00
20909;BME280;10614;53.198;6.570;2023-07-13T08:20:02;101415.69;;;17.16;100.00
20909;BME280;10614;53.198;6.570;2023-07-13T08:22:04;101432.38;;;17.34;100.00
20909;BME280;10614;53.198;6.570;2023-07-13T08:24:07;101427.66;;;17.53;100.00
20909;BME280;10614;53.198;6.570;2023-07-13T08:26:10;101426.28;;;17.76;100.00
20909;BME280;10614;53.198;6.570;2023-07-13T08:28:12;101427.16;;;17.91;100.00
20909;BME280;10614;53.198;6.570;2023-07-13T08:30:14;101427.66;;;18.12;100.00
20909;BME280;10614;53.198;6.570;2023-07-13T08:32:16;101430.50;;;18.38;100.00
20909;BME280;10614;53.198;6.570;2023-07-13T08:34:18;101418.84;;;18.53;100.00
20909;BME280;10614;53.198;6.570;2023-07-13T08:36:21;101428.53;;;18.68;100.00
20909;BME280;10614;53.198;6.570;2023-07-13T08:38:22;101419.56;;;18.84;100.00
20909;BME280;10614;53.198;6.570;2023-07-13T08:40:25;101424.09;;;18.96;100.00
20909;BME280;10614;53.198;6.570;2023-07-13T08:42:38;101426.06;;;19.07;100.00
20909;BME280;10614;53.198;6.570;2023-07-13T08:44:50;101423.72;;;19.15;100.00
20909;BME280;10614;53.198;6.570;2023-07-13T08:46:56;101423.00;;;19.26;100.00
20909;BME280;10614;53.198;6.570;2023-07-13T08:49:01;101420.88;;;19.31;100.00
20909;BME280;10614;53.198;6.570;2023-07-13T08:51:11;101418.88;;;19.34;100.00
20909;BME280;10614;53.198;6.570;2023-07-13T08:53:15;101416.06;;;19.36;100.00
20909;BME280;10614;53.198;6.570;2023-07-13T08:55:20;101435.72;;;19.35;100.00
20909;BME280;10614;53.198;6.570;2023-07-13T08:57:25;101412.69;;;19.47;100.00
20909;BME280;10614;53.198;6.570;2023-07-13T08:59:33;101412.00;;;19.70;100.00
20909;BME280;10614;53.198;6.570;2023-07-13T09:01:47;101416.16;;;19.87;100.00
20909;BME280;10614;53.198;6.570;2023-07-13T09:04:03;101420.72;;;20.11;99.76
20909;BME280;10614;53.198;6.570;2023-07-13T09:06:08;101414.09;;;20.16;97.20
20909;BME280;10614;53.198;6.570;2023-07-13T09:08:31;101418.69;;;20.14;95.70
20909;BME280;10614;53.198;6.570;2023-07-13T09:10:41;101426.94;;;19.98;92.68
20909;BME280;10614;53.198;6.570;2023-07-13T09:12:52;101429.50;;;19.87;90.85
20909;BME280;10614;53.198;6.570;2023-07-13T09:15:05;101431.22;;;19.75;89.57
20909;BME280;10614;53.198;6.570;2023-07-13T09:17:18;101438.69;;;19.70;91.38
20909;BME280;10614;53.198;6.570;2023-07-13T09:19:27;101438.59;;;19.72;91.44
20909;BME280;10614;53.198;6.570;2023-07-13T09:21:36;101428.53;;;19.75;90.23
20909;BME280;10614;53.198;6.570;2023-07-13T09:23:39;101430.47;;;19.73;91.50
20909;BME280;10614;53.198;6.570;2023-07-13T09:25:42;101441.06;;;19.75;92.86
20909;BME280;10614;53.198;6.570;2023-07-13T09:27:46;101435.56;;;19.64;90.89
20909;BME280;10614;53.198;6.570;2023-07-13T09:29:52;101438.13;;;19.65;89.76
20909;BME280;10614;53.198;6.570;2023-07-13T09:32:02;101427.97;;;19.57;89.39
20909;BME280;10614;53.198;6.570;2023-07-13T09:34:09;101427.75;;;19.60;87.83
20909;BME280;10614;53.198;6.570;2023-07-13T09:36:29;101435.38;;;19.67;89.15
20909;BME280;10614;53.198;6.570;2023-07-13T09:38:31;101443.41;;;19.79;90.50
20909;BME280;10614;53.198;6.570;2023-07-13T09:40:40;101445.53;;;19.87;90.12
20909;BME280;10614;53.198;6.570;2023-07-13T09:42:46;101431.44;;;19.98;87.70
20909;BME280;10614;53.198;6.570;2023-07-13T09:44:53;101428.63;;;20.12;85.32
20909;BME280;10614;53.198;6.570;2023-07-13T09:46:55;101433.09;;;20.24;87.43
20909;BME280;10614;53.198;6.570;2023-07-13T09:48:58;101432.22;;;20.37;87.19
20909;BME280;10614;53.198;6.570;2023-07-13T09:51:09;101450.69;;;20.65;87.65
20909;BME280;10614;53.198;6.570;2023-07-13T09:53:17;101437.09;;;20.69;84.20
20909;BME280;10614;53.198;6.570;2023-07-13T09:55:25;101433.63;;;20.79;82.67
20909;BME280;10614;53.198;6.570;2023-07-13T09:57:28;101454.25;;;20.90;81.16
20909;BME280;10614;53.198;6.570;2023-07-13T09:59:33;101449.97;;;20.87;80.20
20909;BME280;10614;53.198;6.570;2023-07-13T10:01:37;101448.53;;;20.71;80.20
20909;BME280;10614;53.198;6.570;2023-07-13T10:03:51;101445.34;;;20.53;80.39
20909;BME280;10614;53.198;6.570;2023-07-13T10:06:03;101458.75;;;20.40;79.32
20909;BME280;10614;53.198;6.570;2023-07-13T10:08:16;101463.69;;;20.20;78.78
20909;BME280;10614;53.198;6.570;2023-07-13T10:10:21;101458.13;;;20.11;79.18
20909;BME280;10614;53.198;6.570;2023-07-13T10:12:24;101463.38;;;20.12;80.24
20909;BME280;10614;53.198;6.570;2023-07-13T10:14:26;101478.78;;;20.21;80.55
20909;BME280;10614;53.198;6.570;2023-07-13T10:16:31;101483.16;;;20.22;81.73
20909;BME280;10614;53.198;6.570;2023-07-13T10:18:40;101476.84;;;20.23;80.19
20909;BME280;10614;53.198;6.570;2023-07-13T10:20:43;101468.84;;;20.23;77.64
20909;BME280;10614;53.198;6.570;2023-07-13T10:22:52;101478.44;;;20.26;76.65
20909;BME280;10614;53.198;6.570;2023-07-13T10:24:56;101469.13;;;20.32;72.83
20909;BME280;10614;53.198;6.570;2023-07-13T10:27:03;101484.41;;;20.42;72.45
20909;BME280;10614;53.198;6.570;2023-07-13T10:29:12;101469.00;;;20.46;74.71
20909;BME280;10614;53.198;6.570;2023-07-13T10:31:16;101474.88;;;20.51;72.69
20909;BME280;10614;53.198;6.570;2023-07-13T10:33:20;101473.81;;;20.54;72.28
20909;BME280;10614;53.198;6.570;2023-07-13T10:35:22;101485.16;;;20.57;70.13
20909;BME280;10614;53.198;6.570;2023-07-13T10:37:27;101477.13;;;20.57;70.14
20909;BME280;10614;53.198;6.570;2023-07-13T10:39:33;101481.91;;;20.78;71.40
20909;BME280;10614;53.198;6.570;2023-07-13T10:41:39;101500.38;;;20.94;68.98
20909;BME280;10614;53.198;6.570;2023-07-13T10:43:44;101488.59;;;20.96;67.83